createdAt,value
2023-03-15T00:00:02.491Z,1.6
2023-03-15T00:15:02.897Z,1.7
2023-03-15T00:30:02.336Z,2.1
2023-03-15T00:45:02.782Z,2.3
2023-03-15T01:00:03.269Z,2.2
2023-03-15T01:15:02.649Z,1.9
2023-03-15T01:30:03.287Z,1.7
2023-03-15T01:45:02.528Z,1.7
2023-03-15T02:00:02.994Z,1.7
2023-03-15T02:15:02.397Z,1.9
2023-03-15T02:30:02.834Z,1.8
2023-03-15T02:45:02.323Z,1.9
2023-03-15T03:00:02.715Z,1.9
2023-03-15T03:15:03.301Z,2.0
2023-03-15T03:30:02.604Z,2.0
2023-03-15T03:45:03.079Z,1.9
2023-03-15T04:00:02.467Z,1.9
2023-03-15T04:15:02.903Z,1.9
2023-03-15T04:30:02.351Z,1.8
2023-03-15T04:45:02.805Z,1.6
2023-03-15T05:00:03.316Z,1.7
2023-03-15T05:15:02.712Z,1.6
2023-03-15T05:30:02.262Z,1.5
2023-03-15T05:45:02.547Z,1.4
2023-03-15T06:00:02.965Z,1.3
2023-03-15T06:15:02.444Z,1.3
2023-03-15T06:30:02.845Z,1.6
2023-03-15T06:45:02.332Z,1.6
2023-03-15T07:00:02.720Z,1.5
2023-03-15T07:15:03.338Z,1.8
2023-03-15T07:30:02.630Z,2.3
2023-03-15T07:45:03.041Z,3.0
2023-03-15T08:00:02.486Z,3.5
2023-03-15T08:15:02.918Z,3.6
2023-03-15T08:30:02.374Z,4.3
2023-03-15T08:45:02.809Z,4.9
2023-03-15T09:00:03.346Z,6.4
2023-03-15T09:15:02.684Z,7.8
2023-03-15T09:30:03.386Z,8.7
2023-03-15T09:45:02.758Z,9.2
2023-03-15T10:00:03.010Z,8.5
2023-03-15T10:15:02.453Z,8.5
2023-03-15T10:30:02.870Z,8.5
2023-03-15T10:45:02.381Z,8.6
2023-03-15T11:00:02.763Z,9.4
2023-03-15T11:15:03.381Z,9.3
2023-03-15T11:30:02.600Z,10.1
2023-03-15T11:45:03.076Z,10.8
2023-03-15T12:00:02.538Z,10.1
2023-03-15T12:15:03.017Z,9.8
2023-03-15T12:30:02.399Z,9.4
2023-03-15T12:45:02.788Z,8.6
2023-03-15T13:00:03.401Z,8.7
2023-03-15T13:15:02.679Z,10.0
2023-03-15T13:30:03.136Z,8.8
2023-03-15T13:45:02.560Z,8.1
2023-03-15T14:00:03.017Z,7.5
2023-03-15T14:15:02.460Z,7.0
2023-03-15T14:30:02.889Z,7.4
2023-03-15T14:45:02.441Z,8.7
2023-03-15T15:00:02.777Z,8.7
2023-03-15T15:15:03.416Z,8.0
2023-03-15T15:30:02.663Z,7.6
2023-03-15T15:45:03.090Z,7.4
2023-03-15T16:00:02.584Z,7.5
2023-03-15T16:15:02.948Z,7.1
2023-03-15T16:30:02.440Z,6.7
2023-03-15T16:45:02.828Z,6.5
2023-03-15T17:00:04.752Z,6.0
2023-03-15T17:15:02.741Z,5.7
2023-03-15T17:30:03.156Z,5.5
2023-03-15T17:45:02.588Z,5.0
2023-03-15T18:00:03.026Z,4.1
2023-03-15T18:15:02.462Z,3.2
2023-03-15T18:30:02.907Z,2.3
2023-03-15T18:45:02.485Z,1.7
2023-03-15T19:00:02.788Z,1.1
2023-03-15T19:15:03.416Z,0.6
2023-03-15T19:30:02.694Z,0.2
2023-03-15T19:45:03.144Z,-0.2
2023-03-15T20:00:02.565Z,-0.6
2023-03-15T20:15:02.998Z,-1.0
2023-03-15T20:30:02.513Z,-1.2
2023-03-15T20:45:02.878Z,-1.5
2023-03-15T21:00:02.503Z,-1.7
2023-03-15T21:15:02.745Z,-2.0
2023-03-15T21:30:03.198Z,-2.0
2023-03-15T21:45:02.619Z,-2.2
2023-03-15T22:00:03.062Z,-2.2
2023-03-15T22:15:06.230Z,-2.3
2023-03-15T22:30:02.944Z,-2.3
2023-03-15T22:45:02.508Z,-2.6
2023-03-15T23:00:02.850Z,-2.4
2023-03-15T23:15:04.128Z,-2.3
2023-03-15T23:30:02.719Z,-2.3
2023-03-15T23:45:03.159Z,-2.3
